Time,TemperatureF,DewpointF,PressureIn,WindDirection,WindDirectionDegrees,WindSpeedMPH,WindSpeedGustMPH,Humidity,HourlyPrecipIn,Conditions,Clouds,dailyrainin,SoftwareType,DateUTC
2013-08-28 00:04:00,50.1,50.1,29.97,WSW,248,0.0,0.0,100,0.00,,,0.00,WSDL version 420,2013-08-27 14:04:00,
2013-08-28 00:09:00,49.9,49.9,29.97,WSW,248,0.0,0.0,100,0.00,,,0.00,WSDL version 420,2013-08-27 14:09:00,
2013-08-28 00:14:00,49.9,49.9,29.97,WSW,248,0.0,0.0,100,0.00,,,0.00,WSDL version 420,2013-08-27 14:14:00,
2013-08-28 00:19:00,49.7,49.7,29.97,WSW,248,0.0,0.0,100,0.00,,,0.00,WSDL version 420,2013-08-27 14:19:00,
2013-08-28 00:24:00,49.7,49.7,29.97,WSW,248,0.0,0.0,100,0.00,,,0.00,WSDL version 420,2013-08-27 14:24:00,
2013-08-28 00:29:00,49.7,49.7,29.97,WSW,248,0.0,0.0,100,0.00,,,0.00,WSDL version 420,2013-08-27 14:29:00,
2013-08-28 00:34:00,49.6,49.6,29.97,WSW,248,0.0,0.0,100,0.00,,,0.00,WSDL version 420,2013-08-27 14:34:00,
2013-08-28 00:39:00,49.6,49.6,29.97,WSW,248,0.0,0.0,100,0.00,,,0.00,WSDL version 420,2013-08-27 14:39:00,
2013-08-28 00:44:00,49.4,49.4,29.97,WSW,248,0.0,0.0,100,0.00,,,0.00,WSDL version 420,2013-08-27 14:44:00,
2013-08-28 00:49:00,49.3,49.3,29.97,WSW,248,0.0,0.0,100,0.00,,,0.00,WSDL version 420,2013-08-27 14:49:00,
2013-08-28 00:54:00,49.1,49.1,29.97,WSW,248,0.0,0.0,100,0.00,,,0.00,WSDL version 420,2013-08-27 14:54:00,
2013-08-28 00:59:00,-999.0,-99.9,29.97,WSW,248,0.0,0.0,-999,0.00,,,0.00,WSDL version 420,2013-08-27 14:59:00,
2013-08-28 01:04:00,49.2,49.2,29.97,WSW,248,0.0,0.0,100,0.00,,,0.00,WSDL version 420,2013-08-27 15:04:00,
2013-08-28 01:09:00,49.0,49.0,29.97,WSW,248,0.0,0.0,100,0.00,,,0.00,WSDL version 420,2013-08-27 15:09:00,
2013-08-28 01:14:00,48.9,48.9,29.97,WSW,248,0.0,0.0,100,0.00,,,0.00,WSDL version 420,2013-08-27 15:14:00,
2013-08-28 01:19:00,48.9,48.9,29.97,WSW,248,0.0,0.0,100,0.00,,,0.00,WSDL version 420,2013-08-27 15:19:00,
2013-08-28 01:24:00,48.8,48.8,29.97,WSW,248,0.0,0.0,100,0.00,,,0.00,WSDL version 420,2013-08-27 15:24:00,
2013-08-28 01:29:00,49.1,49.1,29.94,WSW,248,0.0,0.0,100,0.00,,,0.00,WSDL version 420,2013-08-27 15:29:00,
2013-08-28 01:34:00,49.1,49.1,29.94,WSW,248,0.0,0.0,100,0.00,,,0.00,WSDL version 420,2013-08-27 15:34:00,
2013-08-28 01:39:00,49.2,49.2,29.94,WSW,248,0.0,0.0,100,0.00,,,0.00,WSDL version 420,2013-08-27 15:39:00,
2013-08-28 01:44:00,49.0,49.0,29.97,WSW,248,0.0,0.0,100,0.00,,,0.00,WSDL version 420,2013-08-27 15:44:00,
2013-08-28 01:49:00,48.8,48.8,29.97,WSW,248,0.0,0.0,100,0.00,,,0.00,WSDL version 420,2013-08-27 15:49:00,
2013-08-28 01:54:00,48.7,48.7,29.97,WSW,239,0.0,0.0,100,0.00,,,0.00,WSDL version 420,2013-08-27 15:54:00,
2013-08-28 01:59:00,49.1,49.1,29.97,SSE,150,1.7,2.5,100,0.00,,,0.00,WSDL version 420,2013-08-27 15:59:00,
2013-08-28 02:04:00,49.4,49.4,29.97,SW,225,0.0,2.5,100,0.00,,,0.00,WSDL version 420,2013-08-27 16:04:00,
2013-08-28 02:09:00,49.5,49.5,29.97,SSW,210,0.0,0.9,100,0.00,,,0.00,WSDL version 420,2013-08-27 16:09:00,
2013-08-28 02:14:00,49.3,49.3,29.97,SW,225,0.0,0.0,100,-99.99,,,-99.99,WSDL version 420,2013-08-27 16:14:00,
2013-08-28 02:19:00,49.0,49.0,29.97,SW,225,0.0,0.0,100,-99.99,,,-99.99,WSDL version 420,2013-08-27 16:19:00,
2013-08-28 02:24:00,48.7,48.6,29.97,SW,225,0.0,0.0,100,0.00,,,0.00,WSDL version 420,2013-08-27 16:24:00,
2013-08-28 02:29:00,48.7,48.7,29.97,SSW,203,0.0,0.0,100,0.00,,,0.00,WSDL version 420,2013-08-27 16:29:00,
2013-08-28 02:34:00,48.9,48.9,29.97,West,270,0.0,0.0,100,0.00,,,0.00,WSDL version 420,2013-08-27 16:34:00,
2013-08-28 02:39:00,48.7,48.7,29.97,West,270,0.0,0.0,100,0.00,,,0.00,WSDL version 420,2013-08-27 16:39:00,
2013-08-28 02:44:00,48.7,48.7,29.97,West,270,0.0,0.0,100,0.00,,,0.00,WSDL version 420,2013-08-27 16:44:00,
2013-08-28 02:49:00,48.6,48.6,29.97,West,270,0.0,0.0,100,0.00,,,0.00,WSDL version 420,2013-08-27 16:49:00,
2013-08-28 02:54:00,48.7,48.7,29.97,West,270,0.0,0.0,100,0.00,,,0.00,WSDL version 420,2013-08-27 16:54:00,
2013-08-28 02:59:00,48.7,48.7,29.94,West,270,0.0,0.0,100,0.00,,,0.00,WSDL version 420,2013-08-27 16:59:00,
2013-08-28 03:04:00,48.5,48.5,29.94,West,270,0.0,0.0,100,0.00,,,0.00,WSDL version 420,2013-08-27 17:04:00,
2013-08-28 03:09:00,48.6,48.6,29.94,West,270,0.0,0.0,100,0.00,,,0.00,WSDL version 420,2013-08-27 17:09:00,
2013-08-28 03:14:00,48.5,48.5,29.94,West,270,0.0,0.0,100,0.00,,,0.00,WSDL version 420,2013-08-27 17:14:00,
2013-08-28 03:19:00,48.6,48.6,29.94,West,270,0.0,0.0,100,0.00,,,0.00,WSDL version 420,2013-08-27 17:19:00,
2013-08-28 03:24:00,48.9,48.9,29.94,West,270,0.0,0.0,100,0.00,,,0.00,WSDL version 420,2013-08-27 17:24:00,
2013-08-28 03:29:00,49.1,49.1,29.94,West,270,0.0,0.0,100,-99.99,,,-99.99,WSDL version 420,2013-08-27 17:29:00,
2013-08-28 03:34:00,48.8,48.8,29.94,West,270,0.0,0.0,100,0.00,,,0.00,WSDL version 420,2013-08-27 17:34:00,
2013-08-28 03:39:00,48.6,48.6,29.94,West,270,0.0,0.0,100,0.00,,,0.00,WSDL version 420,2013-08-27 17:39:00,
2013-08-28 03:44:00,48.4,48.4,29.94,West,270,0.0,0.0,100,0.00,,,0.00,WSDL version 420,2013-08-27 17:44:00,
2013-08-28 03:49:00,48.5,48.5,29.94,West,270,0.0,0.0,100,0.00,,,0.00,WSDL version 420,2013-08-27 17:49:00,
2013-08-28 03:54:00,48.6,48.6,29.94,West,270,0.0,0.0,100,0.00,,,0.00,WSDL version 420,2013-08-27 17:54:00,
2013-08-28 03:59:00,48.3,48.3,29.94,West,270,0.0,0.0,100,0.00,,,0.00,WSDL version 420,2013-08-27 17:59:00,
2013-08-28 04:04:00,48.0,48.0,29.94,West,270,0.0,0.0,100,0.00,,,0.00,WSDL version 420,2013-08-27 18:04:00,
2013-08-28 04:09:00,48.2,48.2,29.94,West,270,0.0,0.0,100,0.00,,,0.00,WSDL version 420,2013-08-27 18:09:00,
2013-08-28 04:14:00,48.3,48.3,29.94,West,270,0.0,0.0,100,0.00,,,0.00,WSDL version 420,2013-08-27 18:14:00,
2013-08-28 04:19:00,48.4,48.4,29.94,West,270,0.0,0.0,100,0.00,,,0.00,WSDL version 420,2013-08-27 18:19:00,
2013-08-28 04:24:00,48.3,48.3,29.94,SSE,162,0.0,0.0,100,0.00,,,0.00,WSDL version 420,2013-08-27 18:24:00,
2013-08-28 04:29:00,48.6,48.6,29.94,SSE,149,0.0,0.0,100,0.00,,,0.00,WSDL version 420,2013-08-27 18:29:00,
2013-08-28 04:34:00,48.9,48.9,29.94,SW,225,0.0,0.0,100,0.00,,,0.00,WSDL version 420,2013-08-27 18:34:00,
2013-08-28 04:39:00,49.0,49.0,29.94,West,270,0.3,1.6,100,0.00,,,0.00,WSDL version 420,2013-08-27 18:39:00,
2013-08-28 04:44:00,49.6,49.6,29.94,WNW,293,0.0,1.6,100,0.00,,,0.00,WSDL version 420,2013-08-27 18:44:00,
2013-08-28 04:49:00,49.8,49.8,29.94,WNW,293,0.0,1.6,100,0.00,,,0.00,WSDL version 420,2013-08-27 18:49:00,
2013-08-28 04:54:00,-999.0,-99.9,29.94,WNW,293,0.0,2.2,-999,0.00,,,0.00,WSDL version 420,2013-08-27 18:54:00,
2013-08-28 04:59:00,49.8,49.8,29.97,WNW,293,0.0,2.2,100,0.00,,,0.00,WSDL version 420,2013-08-27 18:59:00,
2013-08-28 05:04:00,49.4,49.4,29.97,WNW,293,0.0,1.6,100,0.00,,,0.00,WSDL version 420,2013-08-27 19:04:00,
2013-08-28 05:09:00,49.1,49.1,29.97,WNW,293,0.0,0.9,100,0.00,,,0.00,WSDL version 420,2013-08-27 19:09:00,
2013-08-28 05:14:00,48.8,48.8,29.97,WNW,293,0.0,0.0,100,0.00,,,0.00,WSDL version 420,2013-08-27 19:14:00,
2013-08-28 05:19:00,48.4,48.4,29.97,WNW,293,0.0,0.0,100,-99.99,,,-99.99,WSDL version 420,2013-08-27 19:19:00,
2013-08-28 05:24:00,48.3,48.3,29.97,South,183,0.1,1.3,100,0.00,,,0.00,WSDL version 420,2013-08-27 19:24:00,
2013-08-28 05:29:00,48.4,48.4,29.97,West,270,0.8,2.9,100,0.00,,,0.00,WSDL version 420,2013-08-27 19:29:00,
2013-08-28 05:34:00,48.2,48.2,29.97,West,270,0.0,2.9,100,0.00,,,0.00,WSDL version 420,2013-08-27 19:34:00,
2013-08-28 05:39:00,48.0,48.0,29.97,West,270,0.0,0.0,100,0.00,,,0.00,WSDL version 420,2013-08-27 19:39:00,
2013-08-28 05:44:00,47.8,47.8,29.97,West,270,0.0,0.0,100,0.00,,,0.00,WSDL version 420,2013-08-27 19:44:00,
2013-08-28 05:49:00,47.5,47.5,29.97,West,270,0.0,0.0,100,0.00,,,0.00,WSDL version 420,2013-08-27 19:49:00,
2013-08-28 05:54:00,47.3,47.3,29.97,West,270,0.0,0.0,100,0.00,,,0.00,WSDL version 420,2013-08-27 19:54:00,
2013-08-28 05:59:00,47.2,47.2,29.97,West,270,0.0,0.0,100,0.00,,,0.00,WSDL version 420,2013-08-27 19:59:00,
2013-08-28 06:04:00,47.2,47.2,29.97,West,270,0.0,0.0,100,0.00,,,0.00,WSDL version 420,2013-08-27 20:04:00,
2013-08-28 06:09:00,47.2,47.2,29.97,West,270,0.0,0.0,100,0.00,,,0.00,WSDL version 420,2013-08-27 20:09:00,
2013-08-28 06:14:00,47.2,47.2,29.97,West,270,0.0,0.0,100,0.00,,,0.00,WSDL version 420,2013-08-27 20:14:00,
2013-08-28 06:19:00,47.2,47.2,29.97,West,270,0.0,0.0,100,0.00,,,0.00,WSDL version 420,2013-08-27 20:19:00,
2013-08-28 06:24:00,-999.0,-99.9,29.97,West,270,0.0,0.0,-999,0.00,,,0.00,WSDL version 420,2013-08-27 20:24:00,
2013-08-28 06:29:00,47.3,47.3,29.94,West,270,0.0,0.0,100,0.00,,,0.00,WSDL version 420,2013-08-27 20:29:00,
2013-08-28 06:34:00,47.3,47.3,29.94,West,270,0.0,0.0,100,0.00,,,0.00,WSDL version 420,2013-08-27 20:34:00,
2013-08-28 06:39:00,47.2,47.2,29.94,West,270,0.0,0.0,100,0.00,,,0.00,WSDL version 420,2013-08-27 20:39:00,
2013-08-28 06:44:00,47.3,47.3,29.94,West,270,0.0,0.0,100,0.00,,,0.00,WSDL version 420,2013-08-27 20:44:00,
2013-08-28 06:49:00,47.3,47.3,29.94,West,270,0.0,0.0,100,0.00,,,0.00,WSDL version 420,2013-08-27 20:49:00,
2013-08-28 06:54:00,48.6,48.6,29.94,West,270,0.0,0.0,100,0.00,,,0.00,WSDL version 420,2013-08-27 20:54:00,
2013-08-28 06:59:00,50.9,50.9,29.97,SSE,158,0.0,0.0,100,0.00,,,0.00,WSDL version 420,2013-08-27 20:59:00,
2013-08-28 07:04:00,52.2,52.2,29.97,SSE,158,0.0,0.0,100,0.00,,,0.00,WSDL version 420,2013-08-27 21:04:00,
2013-08-28 07:09:00,53.8,53.8,29.97,West,270,0.0,1.1,100,0.00,,,0.00,WSDL version 420,2013-08-27 21:09:00,
2013-08-28 07:16:00,54.4,54.4,30.00,WNW,293,0.0,1.1,100,0.00,,,0.00,WSDL version 420,2013-08-27 21:16:00,
2013-08-28 07:21:00,55.9,55.9,30.00,WNW,293,0.0,0.0,100,0.00,,,0.00,WSDL version 420,2013-08-27 21:21:00,
2013-08-28 07:26:00,-999.0,-99.9,30.00,WNW,293,0.0,0.0,-999,-99.99,,,-99.99,WSDL version 420,2013-08-27 21:26:00,
2013-08-28 07:31:00,55.7,55.7,30.00,North,360,0.0,0.0,100,0.00,,,0.00,WSDL version 420,2013-08-27 21:31:00,
2013-08-28 07:38:00,54.7,54.7,30.00,NNE,23,0.0,0.0,100,0.00,,,0.00,WSDL version 420,2013-08-27 21:38:00,
2013-08-28 07:48:00,55.7,55.7,30.00,NNE,23,0.0,1.1,100,0.00,,,0.00,WSDL version 420,2013-08-27 21:48:00,
2013-08-28 07:53:00,56.3,56.3,30.00,NNE,16,0.3,1.3,100,-99.99,,,-99.99,WSDL version 420,2013-08-27 21:53:00,
2013-08-28 07:58:00,56.8,56.8,30.00,NE,45,1.1,1.6,100,0.00,,,0.00,WSDL version 420,2013-08-27 21:58:00,
2013-08-28 08:03:00,57.5,57.5,30.00,NNW,341,1.1,2.0,100,0.00,,,0.00,WSDL version 420,2013-08-27 22:03:00,
2013-08-28 08:08:00,58.1,58.1,30.00,North,6,1.8,2.7,100,0.00,,,0.00,WSDL version 420,2013-08-27 22:08:00,
2013-08-28 08:13:00,58.9,58.9,30.00,NNE,23,1.2,2.7,100,0.00,,,0.00,WSDL version 420,2013-08-27 22:13:00,
2013-08-28 08:18:00,59.5,59.5,30.00,NNE,32,1.7,2.2,100,0.00,,,0.00,WSDL version 420,2013-08-27 22:18:00,
2013-08-28 08:23:00,60.2,60.2,30.00,NNE,32,1.3,2.2,100,0.00,,,0.00,WSDL version 420,2013-08-27 22:23:00,
2013-08-28 08:28:00,61.4,61.4,30.03,NNE,18,1.9,2.5,100,0.00,,,0.00,WSDL version 420,2013-08-27 22:28:00,
2013-08-28 08:33:00,62.4,62.4,30.03,NNW,341,1.5,2.5,100,-99.99,,,-99.99,WSDL version 420,2013-08-27 22:33:00,
2013-08-28 08:38:00,63.5,63.5,30.03,North,3,1.4,2.7,100,0.00,,,0.00,WSDL version 420,2013-08-27 22:38:00,
2013-08-28 08:43:00,64.5,64.1,30.03,North,354,1.3,2.7,97,0.00,,,0.00,WSDL version 420,2013-08-27 22:43:00,
2013-08-28 08:48:00,65.9,63.9,30.03,West,276,1.5,2.5,91,0.00,,,0.00,WSDL version 420,2013-08-27 22:48:00,
2013-08-28 08:53:00,66.6,61.1,30.03,West,264,2.0,5.8,80,0.00,,,0.00,WSDL version 420,2013-08-27 22:53:00,
2013-08-28 08:58:00,67.4,58.1,30.03,WNW,289,2.7,5.8,69,0.00,,,0.00,WSDL version 420,2013-08-27 22:58:00,
2013-08-28 09:03:00,68.4,55.5,30.03,West,278,2.4,4.7,62,0.00,,,0.00,WSDL version 420,2013-08-27 23:03:00,
2013-08-28 09:08:00,69.3,55.8,30.03,NW,304,1.8,4.0,62,0.00,,,0.00,WSDL version 420,2013-08-27 23:08:00,
2013-08-28 09:13:00,-999.0,-99.9,30.03,NW,304,3.2,4.7,-999,0.00,,,0.00,WSDL version 420,2013-08-27 23:13:00,
2013-08-28 09:18:00,70.3,52.9,30.03,West,276,2.9,4.7,53,0.00,,,0.00,WSDL version 420,2013-08-27 23:18:00,
2013-08-28 09:23:00,70.7,51.9,30.03,WNW,300,4.0,5.8,50,0.00,,,0.00,WSDL version 420,2013-08-27 23:23:00,
2013-08-28 09:28:00,70.9,51.5,30.03,West,273,2.5,5.8,51,0.00,,,0.00,WSDL version 420,2013-08-27 23:28:00,
2013-08-28 09:33:00,71.6,51.5,30.03,WNW,293,3.8,6.3,49,0.00,,,0.00,WSDL version 420,2013-08-27 23:33:00,
2013-08-28 09:38:00,71.4,50.2,30.03,WNW,287,3.2,6.3,48,0.00,,,0.00,WSDL version 420,2013-08-27 23:38:00,
2013-08-28 09:43:00,71.8,49.9,30.03,NW,309,4.0,7.6,46,0.00,,,0.00,WSDL version 420,2013-08-27 23:43:00,
2013-08-28 09:48:00,72.4,51.1,30.03,WNW,286,3.1,7.6,47,0.00,,,0.00,WSDL version 420,2013-08-27 23:48:00,
2013-08-28 09:53:00,73.4,51.7,30.03,NW,304,2.5,4.9,46,0.00,,,0.00,WSDL version 420,2013-08-27 23:53:00,
2013-08-28 09:58:00,74.1,50.0,30.03,West,266,4.3,6.5,42,0.00,,,0.00,WSDL version 420,2013-08-27 23:58:00,
2013-08-28 10:03:00,74.4,49.6,30.03,NW,307,4.1,8.7,41,0.00,,,0.00,WSDL version 420,2013-08-28 00:03:00,
2013-08-28 10:08:00,74.6,49.2,30.03,WNW,300,2.7,8.7,41,0.00,,,0.00,WSDL version 420,2013-08-28 00:08:00,
2013-08-28 10:13:00,74.7,45.2,30.03,WNW,293,4.7,7.8,34,0.00,,,0.00,WSDL version 420,2013-08-28 00:13:00,
2013-08-28 10:18:00,75.2,45.7,30.03,WNW,289,2.7,7.8,35,-99.99,,,-99.99,WSDL version 420,2013-08-28 00:18:00,
2013-08-28 10:23:00,76.0,46.4,30.03,WSW,248,3.3,7.4,35,0.00,,,0.00,WSDL version 420,2013-08-28 00:23:00,
2013-08-28 10:28:00,-999.0,-99.9,30.03,NW,308,4.3,7.4,-999,0.00,,,0.00,WSDL version 420,2013-08-28 00:28:00,
2013-08-28 10:38:00,76.4,44.4,30.03,NW,315,2.9,6.0,32,0.00,,,0.00,WSDL version 420,2013-08-28 00:38:00,
2013-08-28 10:43:00,76.7,44.7,30.03,NE,42,2.9,6.0,32,0.00,,,0.00,WSDL version 420,2013-08-28 00:43:00,
2013-08-28 10:48:00,77.1,44.2,30.03,WNW,290,3.9,6.0,31,0.00,,,0.00,WSDL version 420,2013-08-28 00:48:00,
2013-08-28 10:53:00,76.7,43.9,30.03,West,276,3.5,10.1,31,0.00,,,0.00,WSDL version 420,2013-08-28 00:53:00,
2013-08-28 10:58:00,76.5,43.9,30.03,West,262,4.3,12.5,31,0.00,,,0.00,WSDL version 420,2013-08-28 00:58:00,
2013-08-28 11:03:00,76.6,44.0,30.03,North,357,4.1,12.5,31,0.00,,,0.00,WSDL version 420,2013-08-28 01:03:00,
2013-08-28 11:13:00,77.0,44.1,30.03,NE,37,3.4,8.1,31,0.00,,,0.00,WSDL version 420,2013-08-28 01:13:00,
2013-08-28 11:18:00,76.9,44.0,30.03,ENE,75,4.0,7.8,31,0.00,,,0.00,WSDL version 420,2013-08-28 01:18:00,
2013-08-28 11:23:00,76.4,43.6,30.03,East,100,3.4,8.7,31,0.00,,,0.00,WSDL version 420,2013-08-28 01:23:00,
2013-08-28 11:29:00,77.1,44.2,30.03,East,93,3.5,6.3,31,0.00,,,0.00,WSDL version 420,2013-08-28 01:29:00,
2013-08-28 11:34:00,77.8,44.8,30.03,SE,145,3.6,6.3,31,0.00,,,0.00,WSDL version 420,2013-08-28 01:34:00,
2013-08-28 11:39:00,78.4,45.3,30.03,WNW,289,2.3,5.8,31,0.00,,,0.00,WSDL version 420,2013-08-28 01:39:00,
2013-08-28 11:44:00,78.7,44.7,30.03,West,273,4.4,7.8,30,0.00,,,0.00,WSDL version 420,2013-08-28 01:44:00,
2013-08-28 11:54:00,77.7,43.9,30.03,NW,325,2.6,10.7,30,0.00,,,0.00,WSDL version 420,2013-08-28 01:54:00,
2013-08-28 12:01:00,78.3,44.3,30.03,WNW,290,4.6,7.4,30,0.00,,,0.00,WSDL version 420,2013-08-28 02:01:00,
2013-08-28 12:06:00,78.1,44.2,30.03,West,276,3.3,7.4,30,0.00,,,0.00,WSDL version 420,2013-08-28 02:06:00,
2013-08-28 12:11:00,79.4,45.3,30.03,NNW,340,3.4,6.3,30,0.00,,,0.00,WSDL version 420,2013-08-28 02:11:00,
2013-08-28 12:21:00,78.7,45.6,30.03,South,183,2.6,8.5,31,0.00,,,0.00,WSDL version 420,2013-08-28 02:21:00,
2013-08-28 12:26:00,78.7,45.5,30.03,NNW,329,3.6,6.0,31,0.00,,,0.00,WSDL version 420,2013-08-28 02:26:00,
2013-08-28 12:36:00,77.2,44.3,30.03,ENE,64,5.3,8.5,31,-99.99,,,-99.99,WSDL version 420,2013-08-28 02:36:00,
2013-08-28 12:41:00,77.2,44.2,30.03,NE,56,3.0,8.5,31,0.00,,,0.00,WSDL version 420,2013-08-28 02:41:00,
2013-08-28 12:46:00,76.9,44.0,30.03,ESE,103,4.6,8.1,31,0.00,,,0.00,WSDL version 420,2013-08-28 02:46:00,
2013-08-28 12:51:00,77.0,44.1,30.03,NW,326,3.6,8.1,31,0.00,,,0.00,WSDL version 420,2013-08-28 02:51:00,
2013-08-28 12:56:00,76.5,44.3,30.03,East,87,4.8,7.2,32,0.00,,,0.00,WSDL version 420,2013-08-28 02:56:00,
2013-08-28 13:01:00,76.5,44.4,30.03,East,93,5.4,8.5,32,0.00,,,0.00,WSDL version 420,2013-08-28 03:01:00,
2013-08-28 13:11:00,77.1,45.0,30.03,NE,42,4.8,7.6,32,0.00,,,0.00,WSDL version 420,2013-08-28 03:11:00,
2013-08-28 13:21:00,77.5,44.6,30.03,NE,56,4.8,6.5,31,0.00,,,0.00,WSDL version 420,2013-08-28 03:21:00,
2013-08-28 13:26:00,76.9,44.0,30.03,WNW,301,5.2,8.7,31,0.00,,,0.00,WSDL version 420,2013-08-28 03:26:00,
2013-08-28 13:31:00,77.2,44.5,30.03,East,87,4.4,10.1,32,0.00,,,0.00,WSDL version 420,2013-08-28 03:31:00,
2013-08-28 13:36:00,76.9,44.6,30.03,NW,326,2.7,10.1,31,0.00,,,0.00,WSDL version 420,2013-08-28 03:36:00,
2013-08-28 13:41:00,77.0,44.5,30.06,ENE,77,3.6,7.8,31,0.00,,,0.00,WSDL version 420,2013-08-28 03:41:00,
2013-08-28 13:46:00,77.2,44.3,30.06,NNW,340,3.1,7.8,31,0.00,,,0.00,WSDL version 420,2013-08-28 03:46:00,
2013-08-28 13:51:00,77.5,44.5,30.06,NNE,30,4.1,6.5,31,0.00,,,0.00,WSDL version 420,2013-08-28 03:51:00,
2013-08-28 14:01:00,77.4,44.2,30.03,NNW,335,4.0,7.6,30,0.00,,,0.00,WSDL version 420,2013-08-28 04:01:00,
2013-08-28 14:06:00,77.4,44.0,30.03,ENE,68,3.5,7.8,30,0.00,,,0.00,WSDL version 420,2013-08-28 04:06:00,
2013-08-28 14:11:00,77.8,43.9,30.06,NE,35,2.9,7.8,30,0.00,,,0.00,WSDL version 420,2013-08-28 04:11:00,
2013-08-28 14:16:00,78.2,44.3,30.06,NW,325,3.3,6.3,30,0.00,,,0.00,WSDL version 420,2013-08-28 04:16:00,
2013-08-28 14:21:00,78.1,44.2,30.06,NNW,338,2.9,7.4,30,0.00,,,0.00,WSDL version 420,2013-08-28 04:21:00,
2013-08-28 14:26:00,78.5,44.6,30.00,NNE,19,2.4,7.4,30,0.00,,,0.00,WSDL version 420,2013-08-28 04:26:00,
2013-08-28 14:31:00,78.4,44.4,30.00,NE,42,4.1,6.5,30,0.00,,,0.00,WSDL version 420,2013-08-28 04:31:00,
2013-08-28 14:36:00,77.8,43.9,30.00,ESE,113,4.3,6.5,30,0.00,,,0.00,WSDL version 420,2013-08-28 04:36:00,
2013-08-28 14:41:00,76.6,43.8,30.00,ESE,117,3.4,6.5,31,0.00,,,0.00,WSDL version 420,2013-08-28 04:41:00,
2013-08-28 14:46:00,76.5,43.6,30.00,NNW,340,3.5,8.5,31,0.00,,,0.00,WSDL version 420,2013-08-28 04:46:00,
2013-08-28 14:51:00,75.4,42.7,30.00,NE,53,3.7,8.5,31,0.00,,,0.00,WSDL version 420,2013-08-28 04:51:00,
2013-08-28 14:56:00,75.4,43.2,30.00,NE,51,3.2,7.4,32,0.00,,,0.00,WSDL version 420,2013-08-28 04:56:00,
2013-08-28 15:01:00,75.7,43.8,30.00,ESE,115,2.6,7.4,32,0.00,,,0.00,WSDL version 420,2013-08-28 05:01:00,
2013-08-28 15:06:00,76.1,44.1,30.00,NE,35,3.4,6.5,32,0.00,,,0.00,WSDL version 420,2013-08-28 05:06:00,
2013-08-28 15:11:00,75.3,44.2,30.03,SSW,193,3.4,6.5,33,0.00,,,0.00,WSDL version 420,2013-08-28 05:11:00,
2013-08-28 15:16:00,76.1,45.2,30.03,NE,53,2.3,6.5,33,0.00,,,0.00,WSDL version 420,2013-08-28 05:16:00,
2013-08-28 15:21:00,76.1,44.9,30.03,NNW,328,2.7,5.8,33,0.00,,,0.00,WSDL version 420,2013-08-28 05:21:00,
2013-08-28 15:26:00,76.2,45.5,30.03,NNE,32,3.2,5.8,34,0.00,,,0.00,WSDL version 420,2013-08-28 05:26:00,
2013-08-28 15:31:00,76.2,45.8,30.00,SSE,160,4.3,8.1,34,-99.99,,,-99.99,WSDL version 420,2013-08-28 05:31:00,
2013-08-28 15:36:00,75.3,45.1,30.00,ESE,109,4.1,8.1,34,0.00,,,0.00,WSDL version 420,2013-08-28 05:36:00,
2013-08-28 15:41:00,75.1,45.4,30.00,South,188,3.2,7.4,34,0.00,,,0.00,WSDL version 420,2013-08-28 05:41:00,
2013-08-28 15:46:00,74.8,45.4,30.03,ENE,71,3.4,8.7,35,0.00,,,0.00,WSDL version 420,2013-08-28 05:46:00,
2013-08-28 15:51:00,74.2,44.8,30.03,NNE,23,3.5,8.7,35,0.00,,,0.00,WSDL version 420,2013-08-28 05:51:00,
2013-08-28 15:56:00,73.6,45.4,30.03,ENE,58,3.0,7.6,37,0.00,,,0.00,WSDL version 420,2013-08-28 05:56:00,
2013-08-28 16:01:00,73.5,46.0,30.03,WNW,289,1.9,7.6,38,0.00,,,0.00,WSDL version 420,2013-08-28 06:01:00,
2013-08-28 16:06:00,74.2,47.0,30.03,ESE,115,2.9,6.3,38,0.00,,,0.00,WSDL version 420,2013-08-28 06:06:00,
2013-08-28 16:11:00,73.6,47.7,30.03,NE,48,3.3,6.5,41,0.00,,,0.00,WSDL version 420,2013-08-28 06:11:00,
2013-08-28 16:16:00,73.0,47.9,30.03,ENE,71,3.3,6.5,41,0.00,,,0.00,WSDL version 420,2013-08-28 06:16:00,
2013-08-28 16:21:00,72.5,47.5,30.03,East,84,2.5,6.0,41,0.00,,,0.00,WSDL version 420,2013-08-28 06:21:00,
2013-08-28 16:26:00,73.3,48.2,30.03,ESE,107,2.5,4.3,41,0.00,,,0.00,WSDL version 420,2013-08-28 06:26:00,
2013-08-28 16:31:00,72.7,48.3,30.03,NW,321,1.8,4.3,42,0.00,,,0.00,WSDL version 420,2013-08-28 06:31:00,
2013-08-28 16:36:00,72.4,48.5,30.03,ESE,120,2.5,6.3,43,0.00,,,0.00,WSDL version 420,2013-08-28 06:36:00,
2013-08-28 16:41:00,71.7,48.3,30.03,East,98,2.6,6.3,44,0.00,,,0.00,WSDL version 420,2013-08-28 06:41:00,
2013-08-28 16:46:00,71.3,48.7,30.03,NNE,23,2.4,5.4,45,0.00,,,0.00,WSDL version 420,2013-08-28 06:46:00,
2013-08-28 16:51:00,71.1,49.2,30.03,South,169,2.4,4.3,46,0.00,,,0.00,WSDL version 420,2013-08-28 06:51:00,
2013-08-28 16:56:00,70.6,49.4,30.03,South,190,1.1,4.3,47,0.00,,,0.00,WSDL version 420,2013-08-28 06:56:00,
2013-08-28 17:01:00,70.5,49.3,30.03,East,87,1.8,4.3,47,0.00,,,0.00,WSDL version 420,2013-08-28 07:01:00,
2013-08-28 17:06:00,69.7,49.4,30.03,SE,132,1.6,4.9,49,0.00,,,0.00,WSDL version 420,2013-08-28 07:06:00,
2013-08-28 17:11:00,69.2,49.4,30.03,East,101,1.8,4.9,50,0.00,,,0.00,WSDL version 420,2013-08-28 07:11:00,
2013-08-28 17:16:00,68.4,49.4,30.06,WSW,244,0.7,4.0,50,0.00,,,0.00,WSDL version 420,2013-08-28 07:16:00,
2013-08-28 17:21:00,67.6,48.7,30.06,SSW,199,1.3,4.0,51,0.00,,,0.00,WSDL version 420,2013-08-28 07:21:00,
2013-08-28 17:26:00,66.3,48.7,30.06,West,259,1.5,2.7,54,0.00,,,0.00,WSDL version 420,2013-08-28 07:26:00,
2013-08-28 17:31:00,65.4,49.1,30.06,West,260,1.9,3.4,57,0.00,,,0.00,WSDL version 420,2013-08-28 07:31:00,
2013-08-28 17:36:00,64.4,49.1,30.06,SW,235,1.2,3.4,58,0.00,,,0.00,WSDL version 420,2013-08-28 07:36:00,
2013-08-28 17:41:00,63.7,49.4,30.06,SSW,203,0.0,1.6,61,0.00,,,0.00,WSDL version 420,2013-08-28 07:41:00,
2013-08-28 17:46:00,62.9,49.7,30.06,SSE,158,0.0,1.1,63,0.00,,,0.00,WSDL version 420,2013-08-28 07:46:00,
2013-08-28 17:51:00,62.1,49.0,30.06,SE,138,0.0,1.1,62,0.00,,,0.00,WSDL version 420,2013-08-28 07:51:00,
2013-08-28 17:56:00,61.3,48.7,30.06,ESE,113,1.1,1.6,64,0.00,,,0.00,WSDL version 420,2013-08-28 07:56:00,
2013-08-28 18:01:00,60.8,49.0,30.06,SE,128,0.4,2.0,66,0.00,,,0.00,WSDL version 420,2013-08-28 08:01:00,
2013-08-28 18:06:00,60.2,49.8,30.06,SSE,158,0.0,2.0,69,0.00,,,0.00,WSDL version 420,2013-08-28 08:06:00,
2013-08-28 18:11:00,59.7,49.4,30.06,SSE,158,0.4,1.1,69,0.00,,,0.00,WSDL version 420,2013-08-28 08:11:00,
2013-08-28 18:16:00,59.4,49.2,30.06,ESE,116,0.8,1.6,70,0.00,,,0.00,WSDL version 420,2013-08-28 08:16:00,
2013-08-28 18:21:00,59.0,49.5,30.06,SE,131,1.3,2.5,72,0.00,,,0.00,WSDL version 420,2013-08-28 08:21:00,
2013-08-28 18:26:00,58.6,50.1,30.06,SE,142,1.0,2.5,74,-99.99,,,-99.99,WSDL version 420,2013-08-28 08:26:00,
2013-08-28 18:31:00,58.4,50.4,30.06,SSW,203,0.0,2.2,75,0.00,,,0.00,WSDL version 420,2013-08-28 08:31:00,
2013-08-28 18:36:00,58.2,50.2,30.06,ESE,121,1.1,1.3,75,0.00,,,0.00,WSDL version 420,2013-08-28 08:36:00,
2013-08-28 18:41:00,57.9,50.5,30.06,East,101,0.5,2.0,78,0.00,,,0.00,WSDL version 420,2013-08-28 08:41:00,
2013-08-28 18:46:00,57.7,51.1,30.06,SSW,203,0.0,2.0,79,0.00,,,0.00,WSDL version 420,2013-08-28 08:46:00,
2013-08-28 18:51:00,57.6,51.0,30.06,SSE,154,0.1,1.3,79,0.00,,,0.00,WSDL version 420,2013-08-28 08:51:00,
2013-08-28 18:56:00,57.3,51.2,30.06,SE,143,0.6,2.2,80,0.00,,,0.00,WSDL version 420,2013-08-28 08:56:00,
2013-08-28 19:01:00,57.2,51.5,30.06,ESE,118,0.6,2.2,81,0.00,,,0.00,WSDL version 420,2013-08-28 09:01:00,
2013-08-28 19:06:00,57.1,51.9,30.06,SE,125,1.0,1.6,83,0.00,,,0.00,WSDL version 420,2013-08-28 09:06:00,
2013-08-28 19:11:00,56.8,52.4,30.06,SSE,148,1.3,2.5,86,0.00,,,0.00,WSDL version 420,2013-08-28 09:11:00,
2013-08-28 19:16:00,56.8,53.2,30.06,SSE,158,0.9,2.5,89,0.00,,,0.00,WSDL version 420,2013-08-28 09:16:00,
2013-08-28 19:21:00,56.7,53.4,30.06,ESE,121,0.4,1.6,89,0.00,,,0.00,WSDL version 420,2013-08-28 09:21:00,
2013-08-28 19:26:00,56.4,53.6,30.09,SE,138,0.0,1.3,91,0.00,,,0.00,WSDL version 420,2013-08-28 09:26:00,
2013-08-28 19:31:00,56.3,53.9,30.09,SE,131,0.0,1.1,92,0.00,,,0.00,WSDL version 420,2013-08-28 09:31:00,
2013-08-28 19:41:00,56.1,54.3,30.09,SE,125,0.8,2.5,94,0.00,,,0.00,WSDL version 420,2013-08-28 09:41:00,
2013-08-28 19:46:00,55.9,54.4,30.09,SE,126,1.5,2.0,94,-99.99,,,-99.99,WSDL version 420,2013-08-28 09:46:00,
2013-08-28 19:51:00,55.9,54.7,30.09,SE,129,1.4,2.2,96,0.00,,,0.00,WSDL version 420,2013-08-28 09:51:00,
2013-08-28 19:56:00,55.9,55.1,30.09,SE,129,1.3,2.2,98,0.00,,,0.00,WSDL version 420,2013-08-28 09:56:00,
2013-08-28 20:01:00,55.9,55.4,30.09,SW,219,0.1,2.2,99,0.00,,,0.00,WSDL version 420,2013-08-28 10:01:00,
2013-08-28 20:06:00,55.8,55.5,30.09,SW,221,0.0,1.6,99,0.00,,,0.00,WSDL version 420,2013-08-28 10:06:00,
2013-08-28 20:11:00,55.5,55.2,30.09,SSW,203,0.0,0.0,99,0.00,,,0.00,WSDL version 420,2013-08-28 10:11:00,
2013-08-28 20:16:00,55.4,55.1,30.09,SE,132,0.5,2.0,99,-99.99,,,-99.99,WSDL version 420,2013-08-28 10:16:00,
2013-08-28 20:21:00,55.6,55.3,30.09,SE,135,1.5,2.2,99,0.00,,,0.00,WSDL version 420,2013-08-28 10:21:00,
2013-08-28 20:26:00,55.8,55.8,30.06,SE,135,0.0,2.2,100,0.00,,,0.00,WSDL version 420,2013-08-28 10:26:00,
2013-08-28 20:31:00,55.6,55.6,30.06,SSE,165,0.0,1.6,100,0.00,,,0.00,WSDL version 420,2013-08-28 10:31:00,
2013-08-28 20:36:00,55.1,55.1,30.06,WSW,248,0.0,0.0,100,-99.99,,,-99.99,WSDL version 420,2013-08-28 10:36:00,
2013-08-28 20:41:00,54.8,54.8,30.09,WSW,248,0.0,0.0,100,0.00,,,0.00,WSDL version 420,2013-08-28 10:41:00,
2013-08-28 20:46:00,54.5,54.5,30.09,WSW,248,0.0,0.0,100,0.00,,,0.00,WSDL version 420,2013-08-28 10:46:00,
2013-08-28 20:51:00,54.2,54.2,30.09,WSW,248,0.0,0.0,100,0.00,,,0.00,WSDL version 420,2013-08-28 10:51:00,
2013-08-28 20:56:00,54.1,54.1,30.06,SW,225,0.0,0.0,100,0.00,,,0.00,WSDL version 420,2013-08-28 10:56:00,
2013-08-28 21:01:00,54.3,54.3,30.06,SW,225,0.0,0.0,100,0.00,,,0.00,WSDL version 420,2013-08-28 11:01:00,
2013-08-28 21:06:00,54.2,54.2,30.06,SW,225,0.0,0.0,100,0.00,,,0.00,WSDL version 420,2013-08-28 11:06:00,
2013-08-28 21:11:00,53.9,53.9,30.06,SW,225,0.0,0.0,100,0.00,,,0.00,WSDL version 420,2013-08-28 11:11:00,
2013-08-28 21:16:00,53.6,53.6,30.06,SW,225,0.0,0.0,100,0.00,,,0.00,WSDL version 420,2013-08-28 11:16:00,
2013-08-28 21:21:00,53.6,53.6,30.06,SW,225,0.0,0.0,100,0.00,,,0.00,WSDL version 420,2013-08-28 11:21:00,
2013-08-28 21:26:00,53.6,53.6,30.06,SW,225,0.0,0.0,100,0.00,,,0.00,WSDL version 420,2013-08-28 11:26:00,
2013-08-28 21:31:00,53.5,53.5,30.09,West,270,0.5,1.6,100,0.00,,,0.00,WSDL version 420,2013-08-28 11:31:00,
2013-08-28 21:36:00,53.4,53.4,30.09,SW,225,0.0,1.6,100,0.00,,,0.00,WSDL version 420,2013-08-28 11:36:00,
2013-08-28 21:41:00,53.5,53.5,30.09,SSW,200,0.0,0.0,100,0.00,,,0.00,WSDL version 420,2013-08-28 11:41:00,
2013-08-28 21:46:00,53.8,53.8,30.09,South,180,0.0,0.0,100,0.00,,,0.00,WSDL version 420,2013-08-28 11:46:00,
2013-08-28 21:51:00,53.8,53.8,30.09,WSW,240,0.0,0.0,100,0.00,,,0.00,WSDL version 420,2013-08-28 11:51:00,
2013-08-28 21:56:00,53.5,53.5,30.09,West,270,0.0,0.0,100,0.00,,,0.00,WSDL version 420,2013-08-28 11:56:00,
2013-08-28 22:01:00,53.3,53.3,30.09,SE,141,0.0,0.0,100,-99.99,,,-99.99,WSDL version 420,2013-08-28 12:01:00,
2013-08-28 22:06:00,53.4,53.4,30.09,ENE,68,0.0,0.0,100,0.00,,,0.00,WSDL version 420,2013-08-28 12:06:00,
2013-08-28 22:11:00,53.4,53.4,30.09,West,270,0.3,1.3,100,0.00,,,0.00,WSDL version 420,2013-08-28 12:11:00,
2013-08-28 22:16:00,53.4,53.4,30.09,West,270,0.0,1.3,100,0.00,,,0.00,WSDL version 420,2013-08-28 12:16:00,
2013-08-28 22:21:00,53.4,53.4,30.09,SE,138,0.0,1.1,100,-99.99,,,-99.99,WSDL version 420,2013-08-28 12:21:00,
2013-08-28 22:26:00,53.6,53.6,30.06,SW,225,0.0,0.0,100,0.00,,,0.00,WSDL version 420,2013-08-28 12:26:00,
2013-08-28 22:31:00,53.3,53.3,30.06,West,259,0.0,0.0,100,0.00,,,0.00,WSDL version 420,2013-08-28 12:31:00,
2013-08-28 22:36:00,53.1,53.1,30.06,West,270,0.0,0.0,100,0.00,,,0.00,WSDL version 420,2013-08-28 12:36:00,
2013-08-28 22:41:00,53.1,53.1,30.09,South,180,0.0,0.0,100,0.00,,,0.00,WSDL version 420,2013-08-28 12:41:00,
2013-08-28 22:46:00,53.1,53.1,30.09,South,180,0.0,0.0,100,0.00,,,0.00,WSDL version 420,2013-08-28 12:46:00,
2013-08-28 22:51:00,53.1,53.1,30.09,South,180,0.0,0.0,100,0.00,,,0.00,WSDL version 420,2013-08-28 12:51:00,
2013-08-28 22:56:00,52.8,52.8,30.09,SW,225,0.0,0.0,100,0.00,,,0.00,WSDL version 420,2013-08-28 12:56:00,
2013-08-28 23:01:00,52.7,52.7,30.09,SW,225,0.0,0.0,100,-99.99,,,-99.99,WSDL version 420,2013-08-28 13:01:00,
2013-08-28 23:06:00,52.4,52.4,30.09,West,264,0.0,0.0,100,0.00,,,0.00,WSDL version 420,2013-08-28 13:06:00,
2013-08-28 23:11:00,52.3,52.2,30.09,West,270,0.0,0.0,100,0.00,,,0.00,WSDL version 420,2013-08-28 13:11:00,
2013-08-28 23:16:00,52.1,52.1,30.09,West,270,0.0,0.0,100,0.00,,,0.00,WSDL version 420,2013-08-28 13:16:00,
2013-08-28 23:21:00,52.0,52.0,30.09,West,270,0.0,0.0,100,0.00,,,0.00,WSDL version 420,2013-08-28 13:21:00,
2013-08-28 23:26:00,52.0,52.0,30.06,SW,225,0.0,0.0,100,0.00,,,0.00,WSDL version 420,2013-08-28 13:26:00,
2013-08-28 23:31:00,52.1,52.1,30.06,SW,225,0.0,0.0,100,0.00,,,0.00,WSDL version 420,2013-08-28 13:31:00,
2013-08-28 23:36:00,52.3,52.2,30.06,SSW,203,0.0,0.0,100,0.00,,,0.00,WSDL version 420,2013-08-28 13:36:00,
2013-08-28 23:41:00,52.4,52.4,30.09,West,270,0.0,0.0,100,0.00,,,0.00,WSDL version 420,2013-08-28 13:41:00,
2013-08-28 23:46:00,52.3,52.2,30.09,West,270,0.0,0.0,100,0.00,,,0.00,WSDL version 420,2013-08-28 13:46:00,
2013-08-28 23:51:00,52.2,52.2,30.09,West,270,0.0,0.0,100,0.00,,,0.00,WSDL version 420,2013-08-28 13:51:00,
2013-08-28 23:56:00,51.8,51.8,30.09,West,270,0.0,0.0,100,0.00,,,0.00,WSDL version 420,2013-08-28 13:56:00,